Time;durP1;ratioP1;P1;durP2;ratioP2;P2;SDS_P1;SDS_P2;PMS_P1;PMS_P2;Temp;Humidity;BMP_temperature;BMP_pressure;BME280_temperature;BME280_humidity;BME280_pressure;Samples;Min_cycle;Max_cycle;Signal;HPM_P1;HPM_P2
2022/12/04 00:01:17;;;;;;;25.97;13.70;;;;;;;1.42;77.07;102320.19;6070915;28;20499;-73
2022/12/04 00:04:38;;;;;;;21.30;14.00;;;;;;;1.23;77.20;102312.81;6092892;28;20228;-72
2022/12/04 00:07:59;;;;;;;18.03;11.97;;;;;;;1.30;77.65;102314.34;6071483;29;20240;-71
2022/12/04 00:11:24;;;;;;;22.97;13.33;;;;;;;1.36;77.21;102307.09;6083002;29;20232;-73
2022/12/04 00:14:45;;;;;;;18.90;12.40;;;;;;;1.36;76.91;102306.22;6085051;29;20237;-73
2022/12/04 00:18:06;;;;;;;17.83;12.17;;;;;;;1.39;76.68;102306.16;6093602;28;20644;-73
2022/12/04 00:21:27;;;;;;;16.47;9.83;;;;;;;1.42;77.37;102314.00;6081926;29;20224;-73
2022/12/04 00:24:48;;;;;;;16.73;12.13;;;;;;;1.39;76.88;102311.47;6089989;28;20319;-73
2022/12/04 00:28:10;;;;;;;14.90;10.67;;;;;;;1.26;77.31;102312.69;6101367;28;20650;-73
2022/12/04 00:31:31;;;;;;;13.67;10.53;;;;;;;1.44;77.59;102306.91;6087101;28;20239;-73
2022/12/04 00:34:52;;;;;;;15.00;9.57;;;;;;;1.51;77.14;102303.13;6090289;29;20315;-73
2022/12/04 00:38:13;;;;;;;16.40;11.53;;;;;;;1.54;77.06;102300.41;6091573;28;20235;-73
2022/12/04 00:41:34;;;;;;;20.37;11.67;;;;;;;1.55;76.50;102308.31;6060794;29;20229;-73
2022/12/04 00:44:56;;;;;;;14.77;11.20;;;;;;;1.40;76.48;102302.56;6083717;29;20976;-72
2022/12/04 00:48:17;;;;;;;15.00;11.07;;;;;;;1.27;77.14;102309.16;6086094;29;20324;-73
2022/12/04 00:51:38;;;;;;;18.93;11.07;;;;;;;1.35;77.64;102300.06;6087500;29;20229;-72
2022/12/04 00:54:59;;;;;;;16.90;12.00;;;;;;;1.43;77.32;102295.41;6087306;29;20236;-73
2022/12/04 00:58:20;;;;;;;14.53;9.63;;;;;;;1.52;77.30;102294.25;6087814;29;20248;-73
2022/12/04 01:01:42;;;;;;;18.87;12.27;;;;;;;1.40;77.23;102299.91;6082805;29;20232;-72
2022/12/04 01:05:03;;;;;;;18.40;10.83;;;;;;;1.34;77.26;102297.41;6083632;29;20233;-72
2022/12/04 01:08:24;;;;;;;16.97;11.50;;;;;;;1.36;77.45;102301.78;6088749;28;20718;-72
2022/12/04 01:11:45;;;;;;;19.00;9.63;;;;;;;1.41;77.31;102299.88;6077896;28;20232;-73
2022/12/04 01:15:07;;;;;;;13.43;10.73;;;;;;;1.38;77.73;102291.97;6082934;29;20260;-73
2022/12/04 01:18:29;;;;;;;19.10;10.93;;;;;;;1.52;77.20;102295.09;6080743;28;20236;-71
2022/12/04 01:21:50;;;;;;;20.17;12.23;;;;;;;1.53;76.97;102296.88;6076583;28;20557;-72
2022/12/04 01:25:10;;;;;;;16.60;12.10;;;;;;;1.48;76.93;102296.13;6083581;29;20236;-73
2022/12/04 01:28:31;;;;;;;15.70;10.57;;;;;;;1.39;77.28;102299.06;6081289;28;20778;-73
2022/12/04 01:31:52;;;;;;;18.70;11.83;;;;;;;1.28;78.37;102298.47;6083700;28;20240;-73
2022/12/04 01:35:17;;;;;;;21.67;13.20;;;;;;;1.40;77.86;102299.91;6084482;29;20508;-72
2022/12/04 01:38:39;;;;;;;21.57;12.60;;;;;;;1.51;78.01;102295.16;6084148;29;20911;-71
2022/12/04 01:42:00;;;;;;;18.60;11.43;;;;;;;1.38;77.32;102297.28;6082058;29;20228;-72
2022/12/04 01:45:40;;;;;;;13.87;10.13;;;;;;;1.27;78.84;102286.09;6080663;29;20240;-73
2022/12/04 01:49:01;;;;;;;19.07;11.53;;;;;;;1.42;78.31;102293.63;6086098;29;20606;-72
2022/12/04 01:52:28;;;;;;;15.40;13.10;;;;;;;1.49;78.24;102284.59;6081331;29;20236;-72
2022/12/04 01:55:50;;;;;;;20.10;10.73;;;;;;;1.55;78.13;102283.53;6081898;28;20232;-73
2022/12/04 01:59:15;;;;;;;20.47;10.03;;;;;;;1.36;78.47;102283.19;6084150;28;20241;-72
2022/12/04 02:02:38;;;;;;;14.57;11.23;;;;;;;1.34;78.85;102293.00;6079274;29;20244;-73
2022/12/04 02:05:59;;;;;;;20.50;12.03;;;;;;;1.18;78.91;102283.72;6081846;29;20232;-73
2022/12/04 02:09:22;;;;;;;15.93;10.97;;;;;;;1.33;78.88;102282.41;6082061;29;20614;-73
2022/12/04 02:12:55;;;;;;;16.83;10.57;;;;;;;1.42;78.83;102282.13;6080682;29;20239;-72
2022/12/04 02:16:22;;;;;;;24.33;13.43;;;;;;;1.27;79.08;102278.13;6076212;29;20229;-74
2022/12/04 02:20:00;;;;;;;16.97;11.20;;;;;;;1.47;79.00;102277.56;6083676;29;20237;-73
2022/12/04 02:23:50;;;;;;;15.77;10.73;;;;;;;1.38;79.02;102269.84;6076895;28;20229;-73
2022/12/04 02:27:23;;;;;;;20.87;12.90;;;;;;;1.18;79.62;102261.59;6085834;29;20252;-73
2022/12/04 02:30:47;;;;;;;18.57;12.30;;;;;;;1.26;79.80;102260.47;6079719;29;20679;-72
2022/12/04 02:34:16;;;;;;;18.73;10.57;;;;;;;1.40;80.04;102257.41;6082682;29;20244;-73
2022/12/04 02:37:41;;;;;;;18.83;13.03;;;;;;;1.37;79.43;102268.13;6078975;29;20881;-72
2022/12/04 02:41:08;;;;;;;21.07;13.67;;;;;;;1.51;79.41;102255.31;6083331;29;20240;-72
2022/12/04 02:44:35;;;;;;;20.47;13.73;;;;;;;1.45;79.05;102253.72;6079377;29;20233;-72
2022/12/04 02:47:59;;;;;;;20.77;12.43;;;;;;;1.44;79.60;102261.75;6074727;28;20315;-72
2022/12/04 02:51:23;;;;;;;20.93;11.73;;;;;;;1.48;79.55;102253.59;6072070;29;20829;-72
2022/12/04 02:54:49;;;;;;;18.40;11.27;;;;;;;1.58;79.33;102254.22;6080796;28;20509;-72
2022/12/04 02:58:16;;;;;;;16.70;11.20;;;;;;;1.55;79.38;102252.53;6083292;29;20232;-73
2022/12/04 03:01:41;;;;;;;27.07;14.33;;;;;;;1.67;79.37;102251.28;6078774;29;21198;-73
2022/12/04 03:05:10;;;;;;;18.07;12.67;;;;;;;1.60;79.48;102250.63;6086409;29;20232;-73
2022/12/04 03:08:38;;;;;;;20.83;12.40;;;;;;;1.25;80.03;102257.88;6085521;28;21843;-72
2022/12/04 03:12:06;;;;;;;18.30;13.03;;;;;;;1.22;80.90;102264.13;6087716;29;20307;-73
2022/12/04 03:15:30;;;;;;;18.80;10.27;;;;;;;1.37;80.46;102265.47;6083493;29;20330;-73
2022/12/04 03:18:56;;;;;;;20.17;10.67;;;;;;;1.53;79.98;102264.09;6082409;28;20244;-73
2022/12/04 03:22:22;;;;;;;12.93;10.63;;;;;;;1.33;80.28;102262.03;6084424;29;20615;-72
2022/12/04 03:25:56;;;;;;;16.57;11.83;;;;;;;1.42;80.36;102266.19;6089058;28;20228;-72
2022/12/04 03:29:21;;;;;;;17.73;10.30;;;;;;;1.49;80.58;102257.16;6082258;29;20224;-73
2022/12/04 03:32:49;;;;;;;15.10;10.80;;;;;;;1.59;80.04;102261.25;6087656;29;20241;-73
2022/12/04 03:36:16;;;;;;;17.23;11.30;;;;;;;1.35;80.63;102260.22;6089230;28;20256;-72
2022/12/04 03:39:46;;;;;;;15.60;10.83;;;;;;;1.24;81.07;102264.06;6085107;28;20245;-71
2022/12/04 03:43:13;;;;;;;19.20;12.13;;;;;;;1.30;80.89;102261.25;6083880;29;20377;-73
2022/12/04 03:46:40;;;;;;;22.00;12.00;;;;;;;1.33;81.15;102258.50;6082093;29;20241;-72
2022/12/04 03:50:07;;;;;;;22.50;12.33;;;;;;;1.26;81.60;102255.16;6076640;29;21510;-72
2022/12/04 03:53:35;;;;;;;21.67;12.13;;;;;;;1.27;81.18;102256.88;6085620;29;20772;-72
2022/12/04 03:57:01;;;;;;;17.20;11.70;;;;;;;1.35;81.66;102260.22;6083225;29;20316;-73
2022/12/04 04:00:23;;;;;;;19.00;11.47;;;;;;;1.51;80.80;102247.34;6080092;29;20236;-73
2022/12/04 04:03:49;;;;;;;21.10;12.50;;;;;;;1.63;80.24;102248.78;6082814;29;20229;-71
2022/12/04 04:07:14;;;;;;;16.27;11.53;;;;;;;1.66;80.05;102256.63;6085746;29;20228;-72
2022/12/04 04:10:34;;;;;;;19.87;10.70;;;;;;;1.44;81.09;102249.31;6079529;29;20241;-72
2022/12/04 04:25:10;;;;;;;17.70;10.97;;;;;;;1.57;81.01;102249.81;6100544;28;20236;-71
2022/12/04 04:28:34;;;;;;;18.80;11.83;;;;;;;1.68;80.73;102245.06;6076749;28;20224;-72
2022/12/04 04:32:03;;;;;;;16.60;11.97;;;;;;;1.76;80.32;102239.50;6094573;28;20228;-73
2022/12/04 04:35:31;;;;;;;16.87;11.77;;;;;;;1.63;80.48;102239.88;6086079;29;20316;-71
2022/12/04 04:39:00;;;;;;;17.30;11.63;;;;;;;1.53;81.32;102238.41;6086767;28;20961;-73
2022/12/04 04:42:25;;;;;;;12.90;8.57;;;;;;;1.61;80.77;102243.50;6084435;29;20228;-72
2022/12/04 04:45:48;;;;;;;18.10;12.13;;;;;;;1.66;80.94;102244.22;6080429;28;20230;-73
2022/12/04 04:49:14;;;;;;;13.70;9.87;;;;;;;1.66;80.71;102249.56;6080499;29;20225;-72
2022/12/04 04:52:38;;;;;;;19.83;10.57;;;;;;;1.75;80.87;102248.41;6083982;28;20240;-73
2022/12/04 04:55:59;;;;;;;15.00;10.20;;;;;;;1.77;80.64;102244.78;6085038;28;20225;-72
2022/12/04 04:59:20;;;;;;;19.00;10.77;;;;;;;1.81;80.49;102248.22;6086819;29;20563;-72
2022/12/04 05:02:41;;;;;;;19.73;12.07;;;;;;;1.78;80.69;102253.59;6083983;29;20240;-72
2022/12/04 05:06:03;;;;;;;16.83;11.37;;;;;;;1.75;80.81;102259.03;6088301;29;20614;-72
2022/12/04 05:09:25;;;;;;;23.33;13.23;;;;;;;1.77;80.74;102252.75;6084960;29;20232;-72
2022/12/04 05:12:46;;;;;;;17.83;12.23;;;;;;;1.79;80.70;102263.34;6086896;29;20240;-72
2022/12/04 05:16:10;;;;;;;19.87;13.33;;;;;;;1.77;80.94;102263.41;6083322;28;20240;-71
2022/12/04 05:23:13;;;;;;;12.27;9.67;;;;;;;1.74;80.85;102267.91;6090114;29;20674;-72
2022/12/04 05:26:34;;;;;;;16.23;12.73;;;;;;;1.71;81.17;102266.22;6082533;29;20280;-72
2022/12/04 05:29:57;;;;;;;19.47;12.43;;;;;;;1.64;81.28;102267.31;6081356;29;20232;-73
2022/12/04 05:33:18;;;;;;;13.80;11.07;;;;;;;1.62;81.32;102266.50;6073418;29;20237;-73
2022/12/04 05:36:39;;;;;;;16.93;12.23;;;;;;;1.79;81.35;102260.69;6082914;29;20233;-73
2022/12/04 05:40:01;;;;;;;16.87;11.33;;;;;;;1.56;81.58;102254.25;6077068;29;20237;-73
2022/12/04 05:43:22;;;;;;;18.90;10.67;;;;;;;1.66;81.58;102254.88;6082499;29;20331;-72
2022/12/04 05:46:43;;;;;;;16.97;11.07;;;;;;;1.61;81.54;102264.75;6084288;29;20236;-72
2022/12/04 05:50:05;;;;;;;16.97;12.87;;;;;;;1.48;81.94;102261.56;6085896;28;20347;-71
2022/12/04 05:53:26;;;;;;;15.13;10.10;;;;;;;1.43;82.30;102260.88;6079910;29;20319;-72
2022/12/04 05:56:48;;;;;;;18.60;12.33;;;;;;;1.64;82.34;102262.00;6096315;29;20237;-73
2022/12/04 06:00:11;;;;;;;22.53;11.70;;;;;;;1.74;81.63;102260.81;6074267;29;20237;-73
2022/12/04 06:03:34;;;;;;;26.70;13.63;;;;;;;1.73;81.47;102258.22;6078776;28;20232;-73
2022/12/04 06:06:55;;;;;;;19.67;11.47;;;;;;;1.78;81.42;102243.84;6080285;29;20232;-72
2022/12/04 06:10:16;;;;;;;17.03;11.27;;;;;;;1.84;81.30;102251.63;6080979;29;20240;-72
2022/12/04 06:13:40;;;;;;;18.57;11.60;;;;;;;1.86;81.29;102256.91;6083109;29;20244;-72
2022/12/04 06:17:01;;;;;;;19.77;11.30;;;;;;;1.83;81.05;102249.03;6078155;29;20335;-73
2022/12/04 06:20:22;;;;;;;18.20;12.83;;;;;;;1.88;81.52;102263.06;6079211;29;20682;-72
2022/12/04 06:23:43;;;;;;;17.53;11.90;;;;;;;1.76;81.44;102271.38;6085935;29;20228;-72
2022/12/04 06:27:04;;;;;;;16.03;11.43;;;;;;;1.85;81.70;102273.78;6080451;28;20308;-72
2022/12/04 06:30:29;;;;;;;19.37;11.23;;;;;;;1.91;81.28;102268.28;6084081;29;20236;-72
2022/12/04 06:33:50;;;;;;;19.37;11.73;;;;;;;1.96;81.06;102269.00;6088517;28;20232;-72
2022/12/04 06:37:11;;;;;;;14.07;10.40;;;;;;;2.00;80.99;102270.66;6084667;29;20648;-72
2022/12/04 06:40:32;;;;;;;19.97;12.30;;;;;;;1.87;81.50;102272.81;6080258;28;20236;-73
2022/12/04 06:43:52;;;;;;;19.00;11.83;;;;;;;1.81;81.51;102267.69;6079244;29;20314;-72
2022/12/04 06:47:15;;;;;;;18.70;12.43;;;;;;;1.89;81.84;102262.13;6077942;29;20550;-72
2022/12/04 06:50:35;;;;;;;14.17;9.33;;;;;;;1.93;81.54;102261.13;6081766;29;20577;-72
2022/12/04 06:53:56;;;;;;;18.33;13.10;;;;;;;1.85;81.77;102273.78;6083910;28;20335;-73
2022/12/04 06:57:17;;;;;;;21.37;11.93;;;;;;;1.83;81.80;102279.16;6079927;28;20248;-73
2022/12/04 07:00:39;;;;;;;22.87;13.30;;;;;;;1.74;82.10;102281.19;6071745;29;20264;-71
2022/12/04 07:04:03;;;;;;;20.93;13.17;;;;;;;1.73;82.38;102285.66;6076835;29;20225;-73
2022/12/04 07:07:24;;;;;;;21.23;11.70;;;;;;;1.84;82.52;102280.00;6083563;29;20225;-72
2022/12/04 07:10:45;;;;;;;20.17;11.07;;;;;;;1.90;82.14;102279.84;6080060;29;20607;-72
2022/12/04 07:14:06;;;;;;;18.30;12.00;;;;;;;1.82;82.41;102280.06;6076995;29;20232;-72
2022/12/04 07:17:27;;;;;;;19.40;11.73;;;;;;;1.85;82.43;102285.28;6075272;29;20256;-73
2022/12/04 07:20:49;;;;;;;16.43;10.87;;;;;;;1.78;82.28;102278.41;6077286;29;20245;-72
2022/12/04 07:24:15;;;;;;;15.17;10.97;;;;;;;1.99;82.36;102279.53;6080624;29;20238;-72
2022/12/04 07:27:36;;;;;;;18.30;11.87;;;;;;;2.06;81.89;102278.44;6082171;29;20236;-73
2022/12/04 07:30:57;;;;;;;21.83;12.40;;;;;;;2.04;81.82;102272.31;6075768;29;20229;-71
2022/12/04 07:34:18;;;;;;;16.10;11.53;;;;;;;2.09;81.89;102270.34;6077159;29;20236;-72
2022/12/04 07:37:40;;;;;;;18.87;12.00;;;;;;;2.23;81.37;102266.34;6073954;28;20779;-71
2022/12/04 07:41:03;;;;;;;24.33;12.57;;;;;;;2.27;81.40;102269.78;6073593;29;20271;-73
2022/12/04 07:44:24;;;;;;;33.07;12.17;;;;;;;2.17;81.48;102273.66;6079432;29;20237;-71
2022/12/04 07:47:45;;;;;;;21.63;12.30;;;;;;;2.02;82.05;102284.78;6082015;28;20233;-71
2022/12/04 07:51:07;;;;;;;16.97;12.47;;;;;;;2.14;82.08;102279.94;6082966;29;20237;-74
2022/12/04 07:54:29;;;;;;;19.03;11.40;;;;;;;2.12;81.86;102287.09;6086178;29;20236;-72
2022/12/04 07:57:50;;;;;;;21.43;13.77;;;;;;;2.15;82.14;102278.16;6088200;29;20554;-72
2022/12/04 08:01:12;;;;;;;23.57;11.87;;;;;;;2.15;81.94;102296.78;6085942;29;20268;-73
2022/12/04 08:04:33;;;;;;;21.40;12.90;;;;;;;2.14;82.09;102300.34;6088334;28;20240;-72
2022/12/04 08:07:54;;;;;;;23.10;13.93;;;;;;;2.09;82.26;102297.81;6083213;29;20229;-71
2022/12/04 08:11:21;;;;;;;25.67;13.10;;;;;;;2.06;82.04;102292.63;6087337;29;20631;-74
2022/12/04 08:14:42;;;;;;;19.33;11.90;;;;;;;2.04;82.73;102298.91;6087917;29;20320;-72
2022/12/04 08:18:03;;;;;;;21.50;13.60;;;;;;;2.04;82.89;102290.91;6089640;29;20236;-72
2022/12/04 08:21:26;;;;;;;24.87;14.37;;;;;;;2.08;82.82;102289.91;6083014;29;20232;-72
2022/12/04 08:24:46;;;;;;;20.07;13.13;;;;;;;2.14;82.53;102287.03;6084413;29;20236;-72
2022/12/04 08:28:10;;;;;;;23.97;14.20;;;;;;;2.06;82.86;102289.97;6080272;28;20573;-73
2022/12/04 08:31:33;;;;;;;29.83;14.87;;;;;;;2.11;83.25;102284.47;6078910;29;20248;-73
2022/12/04 08:34:54;;;;;;;21.00;11.83;;;;;;;2.01;83.19;102291.00;6079831;28;20240;-73
2022/12/04 08:38:14;;;;;;;19.73;12.10;;;;;;;2.81;92.34;102293.69;6070939;29;20601;-74
2022/12/04 08:41:35;;;;;;;16.13;11.27;;;;;;;3.93;89.32;102285.97;6073027;29;20256;-82
2022/12/04 08:44:58;;;;;;;17.80;11.77;;;;;;;3.27;81.57;102284.97;6075140;28;20252;-73
2022/12/04 08:48:18;;;;;;;26.90;15.87;;;;;;;2.82;82.29;102282.97;6076399;29;20315;-74
2022/12/04 08:51:39;;;;;;;29.20;17.43;;;;;;;3.00;85.02;102290.31;6072914;29;20255;-73
2022/12/04 08:55:00;;;;;;;147.00;93.97;;;;;;;3.47;89.92;102285.09;6069198;28;20578;-70
2022/12/04 08:58:21;;;;;;;693.63;516.07;;;;;;;3.86;85.12;102281.78;6076512;29;20229;-67
2022/12/04 09:01:44;;;;;;;296.43;265.10;;;;;;;4.31;83.49;102279.13;6078536;29;20685;-67
2022/12/04 09:05:05;;;;;;;409.23;308.00;;;;;;;4.41;81.03;102275.16;6075174;29;20647;-66
2022/12/04 09:08:26;;;;;;;672.80;597.07;;;;;;;4.40;82.25;102277.88;6080276;29;20241;-68
2022/12/04 09:11:47;;;;;;;223.63;168.33;;;;;;;4.46;78.11;102275.84;6072911;29;20240;-66
2022/12/04 09:15:09;;;;;;;67.00;50.07;;;;;;;4.41;77.70;102279.59;6065054;28;20248;-73
2022/12/04 09:18:32;;;;;;;34.60;23.10;;;;;;;4.20;76.32;102280.47;6056524;29;20581;-73
2022/12/04 09:21:53;;;;;;;22.87;14.47;;;;;;;4.12;76.58;102279.91;6074902;29;20264;-73
2022/12/04 09:25:14;;;;;;;17.20;11.90;;;;;;;4.11;76.22;102283.53;6074549;29;20236;-75
2022/12/04 09:28:35;;;;;;;21.07;15.00;;;;;;;3.75;76.43;102280.47;6069261;29;20228;-74
2022/12/04 09:31:56;;;;;;;21.47;12.53;;;;;;;3.77;77.04;102283.97;6067170;29;20685;-74
2022/12/04 09:35:18;;;;;;;18.40;13.13;;;;;;;3.79;76.90;102280.31;6070884;29;20232;-73
2022/12/04 09:38:39;;;;;;;20.80;12.33;;;;;;;3.70;76.97;102278.00;6059276;29;20252;-75
2022/12/04 09:42:27;;;;;;;17.20;10.73;;;;;;;3.73;76.92;102280.56;6069737;29;20627;-74
2022/12/04 09:45:53;;;;;;;16.47;11.53;;;;;;;3.62;77.39;102274.75;6054961;29;20236;-74
2022/12/04 09:49:20;;;;;;;27.97;13.57;;;;;;;3.61;77.45;102275.66;6065849;29;20237;-74
2022/12/04 09:52:50;;;;;;;17.53;12.37;;;;;;;3.35;78.27;102272.22;6061415;29;20236;-76
2022/12/04 09:56:14;;;;;;;17.63;12.73;;;;;;;3.43;78.65;102263.03;6068716;29;20224;-76
2022/12/04 09:59:40;;;;;;;17.37;11.53;;;;;;;3.52;78.43;102262.69;6077145;29;20658;-77
2022/12/04 10:03:05;;;;;;;21.23;12.87;;;;;;;3.50;78.66;102258.34;6074202;29;20237;-78
2022/12/04 10:06:30;;;;;;;16.43;10.17;;;;;;;3.41;78.79;102253.34;6080558;29;20233;-78
2022/12/04 10:10:03;;;;;;;15.20;11.57;;;;;;;3.54;78.54;102249.31;6079078;29;20237;-77
2022/12/04 10:13:47;;;;;;;19.17;13.33;;;;;;;3.62;78.29;102250.75;6069997;28;20266;-77
2022/12/04 10:17:22;;;;;;;21.83;11.63;;;;;;;3.50;78.52;102247.69;6069599;29;20611;-77
2022/12/04 10:20:57;;;;;;;15.87;11.03;;;;;;;3.28;79.53;102262.69;6076109;28;20232;-77
2022/12/04 10:24:30;;;;;;;16.07;11.17;;;;;;;3.38;79.75;102258.81;6082633;29;20261;-76
2022/12/04 10:27:56;;;;;;;19.27;13.27;;;;;;;3.49;79.28;102248.59;6085512;29;20228;-76
2022/12/04 10:31:17;;;;;;;13.20;9.70;;;;;;;3.23;79.96;102253.09;6078421;29;20236;-76
2022/12/04 10:34:38;;;;;;;13.33;9.33;;;;;;;3.17;80.39;102252.47;6082448;29;20814;-77
2022/12/04 10:38:03;;;;;;;16.80;10.53;;;;;;;3.32;79.82;102243.03;6072495;29;20237;-76
2022/12/04 10:41:28;;;;;;;12.93;9.33;;;;;;;3.46;79.97;102241.59;6067893;29;20263;-77
2022/12/04 10:44:51;;;;;;;12.07;10.63;;;;;;;3.48;79.53;102245.06;6077410;28;20315;-77
2022/12/04 10:48:19;;;;;;;19.80;12.13;;;;;;;3.54;79.70;102244.84;6079273;28;20237;-76
2022/12/04 10:51:42;;;;;;;13.67;9.53;;;;;;;3.53;79.43;102245.75;6086076;28;20224;-76
2022/12/04 10:55:03;;;;;;;14.37;10.10;;;;;;;3.42;80.33;102242.63;6086320;29;20229;-76
2022/12/04 10:58:26;;;;;;;19.77;12.77;;;;;;;3.53;79.56;102244.88;6071457;28;21133;-77
2022/12/04 11:01:50;;;;;;;17.30;9.60;;;;;;;3.59;79.58;102237.53;6081980;28;20316;-77
2022/12/04 11:05:24;;;;;;;16.33;12.63;;;;;;;3.66;79.18;102232.81;6082441;28;21128;-78
2022/12/04 11:08:51;;;;;;;13.93;10.20;;;;;;;3.52;79.56;102227.16;6080333;29;20240;-77
2022/12/04 11:12:19;;;;;;;19.13;10.20;;;;;;;3.54;79.84;102233.31;6078884;29;20233;-77
2022/12/04 11:15:43;;;;;;;16.07;10.80;;;;;;;3.53;79.91;102232.44;6086097;28;20223;-77
2022/12/04 11:19:21;;;;;;;15.97;11.67;;;;;;;3.51;79.94;102223.63;6079069;29;20240;-79
2022/12/04 11:22:50;;;;;;;16.03;10.13;;;;;;;3.46;80.25;102227.41;6080441;28;20500;-77
2022/12/04 11:26:12;;;;;;;13.33;9.93;;;;;;;3.56;79.40;102215.47;6084066;28;20660;-77
2022/12/04 11:29:37;;;;;;;15.03;10.83;;;;;;;3.43;80.09;102223.03;6080880;28;20260;-78
2022/12/04 11:32:59;;;;;;;21.60;12.30;;;;;;;3.34;80.32;102214.53;6081840;29;20870;-75
2022/12/04 11:36:26;;;;;;;16.80;12.03;;;;;;;3.28;80.81;102215.63;6087633;28;20258;-77
2022/12/04 11:39:48;;;;;;;24.27;12.50;;;;;;;3.36;80.60;102216.19;6068519;28;20240;-78
2022/12/04 11:43:15;;;;;;;16.27;11.67;;;;;;;3.52;80.47;102221.84;6062567;29;20229;-77
2022/12/04 11:46:36;;;;;;;16.70;12.70;;;;;;;3.54;80.02;102211.97;6083211;28;20331;-77
2022/12/04 11:50:02;;;;;;;22.20;12.07;;;;;;;3.54;80.13;102206.66;6074500;29;20228;-79
2022/12/04 11:53:43;;;;;;;16.33;12.10;;;;;;;3.57;80.10;102202.06;6071177;28;20634;-80
2022/12/04 11:57:16;;;;;;;24.03;13.20;;;;;;;3.62;79.87;102194.75;6074484;29;20241;-79
2022/12/04 12:00:47;;;;;;;18.37;10.70;;;;;;;4.41;90.84;102197.72;6065139;29;20240;-80
2022/12/04 12:04:32;;;;;;;19.83;11.00;;;;;;;3.79;80.85;102197.66;6078485;29;20243;-80
2022/12/04 12:08:00;;;;;;;16.33;10.27;;;;;;;3.65;80.73;102188.44;6081339;29;20275;-80
2022/12/04 12:11:28;;;;;;;18.57;11.37;;;;;;;3.72;80.51;102190.81;6088128;28;20236;-80
2022/12/04 12:15:00;;;;;;;16.02;14.32;;;;;;;3.89;81.63;102183.00;6069480;29;20744;-81
2022/12/04 12:18:40;;;;;;;14.50;10.30;;;;;;;3.85;80.56;102185.84;6078499;29;20241;-81
2022/12/04 12:22:11;;;;;;;21.47;13.33;;;;;;;3.86;80.28;102182.22;6067220;29;20287;-74
2022/12/04 12:25:41;;;;;;;16.73;11.03;;;;;;;3.86;80.42;102190.25;6060691;28;20241;-71
2022/12/04 12:29:16;;;;;;;18.73;12.17;;;;;;;3.83;79.88;102203.72;6067236;29;20236;-75
2022/12/04 12:32:53;;;;;;;16.47;10.87;;;;;;;3.67;80.54;102190.09;6076051;28;20254;-71
2022/12/04 12:36:15;;;;;;;14.87;9.70;;;;;;;3.60;81.04;102193.06;6080847;28;20240;-71
2022/12/04 12:39:40;;;;;;;13.70;9.83;;;;;;;3.41;81.50;102189.38;6097750;29;20591;-72
2022/12/04 12:43:05;;;;;;;19.27;12.10;;;;;;;3.49;81.48;102188.16;6083948;29;20233;-72
2022/12/04 12:46:32;;;;;;;15.07;9.87;;;;;;;3.51;81.66;102183.63;6086478;28;20229;-73
2022/12/04 12:49:59;;;;;;;18.20;11.67;;;;;;;3.70;81.53;102179.31;6079590;29;21420;-72
2022/12/04 12:53:25;;;;;;;18.07;11.67;;;;;;;3.69;81.27;102177.56;6074553;28;20372;-72
2022/12/04 12:56:53;;;;;;;12.10;9.30;;;;;;;3.55;81.80;102181.72;6077020;29;20639;-71
2022/12/04 13:00:18;;;;;;;15.83;10.60;;;;;;;3.71;81.48;102162.38;6069110;29;20236;-73
2022/12/04 13:03:48;;;;;;;21.10;11.27;;;;;;;3.75;81.38;102160.47;6084455;29;21202;-74
2022/12/04 13:07:22;;;;;;;14.80;10.23;;;;;;;3.78;81.66;102153.22;6084084;28;20288;-73
2022/12/04 13:10:48;;;;;;;16.60;10.63;;;;;;;3.84;81.67;102144.97;6079165;28;20244;-72
2022/12/04 13:14:12;;;;;;;20.77;11.07;;;;;;;3.87;81.30;102138.66;6082033;28;21631;-74
2022/12/04 13:17:38;;;;;;;14.00;9.47;;;;;;;3.74;82.03;102129.41;6074215;29;20232;-74
2022/12/04 13:21:05;;;;;;;14.40;9.43;;;;;;;3.85;81.44;102132.50;6076954;28;21404;-73
2022/12/04 13:24:45;;;;;;;18.07;11.43;;;;;;;3.93;81.79;102127.72;6073285;29;20228;-73
2022/12/04 13:28:21;;;;;;;17.23;9.80;;;;;;;4.00;81.92;102124.72;6073411;29;20244;-73
2022/12/04 13:31:52;;;;;;;15.03;9.33;;;;;;;3.95;81.51;102115.19;6081314;29;20240;-74
2022/12/04 13:35:19;;;;;;;19.03;10.93;;;;;;;3.88;82.15;102116.41;6075740;29;20228;-73
2022/12/04 13:38:55;;;;;;;19.40;10.47;;;;;;;3.93;82.13;102123.25;6069695;29;20236;-73
2022/12/04 13:42:25;;;;;;;10.57;9.27;;;;;;;3.99;82.21;102112.34;6073649;28;20260;-75
2022/12/04 13:45:48;;;;;;;14.90;9.53;;;;;;;3.91;82.40;102109.13;6073884;29;20229;-74
2022/12/04 13:49:23;;;;;;;18.40;11.57;;;;;;;3.97;82.20;102108.88;6071340;28;20776;-74
2022/12/04 13:52:46;;;;;;;12.77;10.33;;;;;;;4.01;82.56;102114.94;6076550;29;20261;-76
2022/12/04 13:56:23;;;;;;;14.50;9.97;;;;;;;3.86;83.38;102123.56;6074091;28;20315;-74
2022/12/04 13:59:44;;;;;;;14.30;9.83;;;;;;;3.91;83.39;102126.91;6076189;29;20684;-75
2022/12/04 14:03:20;;;;;;;10.40;8.70;;;;;;;3.98;83.35;102125.75;6076248;28;20244;-75
2022/12/04 14:06:45;;;;;;;18.37;12.50;;;;;;;4.01;83.53;102126.47;6082094;29;20240;-75
2022/12/04 14:10:22;;;;;;;15.80;10.27;;;;;;;4.10;83.08;102129.69;6073556;29;20252;-76
2022/12/04 14:13:48;;;;;;;15.20;9.47;;;;;;;4.11;83.45;102129.63;6072431;28;20692;-75
2022/12/04 14:17:18;;;;;;;14.20;10.87;;;;;;;4.18;83.31;102135.56;6079023;29;20527;-75
2022/12/04 14:20:40;;;;;;;15.30;10.53;;;;;;;4.09;83.08;102128.81;6075909;28;20240;-74
2022/12/04 14:24:01;;;;;;;10.77;8.50;;;;;;;4.03;83.85;102132.63;6077750;29;20236;-74
2022/12/04 14:27:33;;;;;;;15.67;9.83;;;;;;;3.98;84.57;102131.94;6070455;29;20319;-75
2022/12/04 14:31:06;;;;;;;15.30;9.67;;;;;;;3.97;84.43;102127.53;6084054;29;20236;-75
2022/12/04 14:34:30;;;;;;;15.67;8.83;;;;;;;4.71;91.45;102121.63;6071156;29;20622;-64
2022/12/04 14:37:55;;;;;;;15.10;8.43;;;;;;;5.08;87.64;102126.19;6079863;29;20622;-63
2022/12/04 14:41:24;;;;;;;17.00;11.10;;;;;;;5.36;86.31;102126.63;6069080;29;20241;-64
2022/12/04 14:44:46;;;;;;;15.37;9.30;;;;;;;5.33;84.67;102121.44;6077609;28;20538;-62
2022/12/04 14:48:23;;;;;;;13.67;8.60;;;;;;;5.35;84.10;102129.38;6077844;29;20669;-63
2022/12/04 14:51:54;;;;;;;17.13;10.93;;;;;;;5.12;82.26;102122.44;6082791;29;20232;-75
2022/12/04 14:55:24;;;;;;;21.83;11.50;;;;;;;4.81;83.50;102119.44;6075120;29;20647;-68
2022/12/04 14:58:46;;;;;;;17.90;11.17;;;;;;;4.29;84.28;102119.97;6067796;29;20616;-75
2022/12/04 15:02:12;;;;;;;15.17;11.17;;;;;;;4.32;84.88;102114.53;6081354;29;20256;-75
2022/12/04 15:05:34;;;;;;;21.30;10.80;;;;;;;4.21;85.61;102109.66;6086510;29;20506;-76
2022/12/04 15:12:32;;;;;;;18.27;12.30;;;;;;;4.25;87.14;102119.25;6086888;28;20236;-75
2022/12/04 15:12:43;;;;;;;17.43;11.63;;;;;;;4.16;86.36;102114.28;6085652;29;20225;-75
2022/12/04 15:16:09;;;;;;;16.23;12.53;;;;;;;4.14;86.92;102113.50;6089126;28;20525;-75
2022/12/04 15:19:30;;;;;;;17.47;10.87;;;;;;;4.11;87.27;102110.09;6089102;29;20236;-76
2022/12/04 15:22:56;;;;;;;19.47;13.23;;;;;;;4.07;87.28;102105.81;6090690;28;20236;-76
2022/12/04 15:26:19;;;;;;;17.63;10.70;;;;;;;4.09;87.13;102102.13;6084688;29;20237;-76
2022/12/04 15:29:47;;;;;;;18.93;14.53;;;;;;;4.13;87.00;102103.72;6069748;28;20311;-75
2022/12/04 15:33:14;;;;;;;16.47;10.93;;;;;;;4.09;87.56;102095.94;6063585;29;20530;-76
2022/12/04 15:36:46;;;;;;;14.97;11.60;;;;;;;3.98;88.31;102096.41;6059607;29;20642;-73
2022/12/04 15:40:13;;;;;;;14.63;10.90;;;;;;;4.34;90.27;102105.50;6074030;29;20252;-73
2022/12/04 15:43:40;;;;;;;15.13;10.67;;;;;;;4.31;87.75;102097.63;6065475;29;20319;-75
2022/12/04 15:47:03;;;;;;;23.37;12.13;;;;;;;4.30;87.66;102095.88;6071790;29;20244;-72
2022/12/04 15:50:27;;;;;;;15.77;10.83;;;;;;;4.20;87.79;102096.34;6073549;29;20241;-75
2022/12/04 15:53:48;;;;;;;17.13;9.83;;;;;;;4.26;88.15;102090.75;6075113;29;20224;-76
2022/12/04 15:57:25;;;;;;;18.63;13.53;;;;;;;4.26;87.69;102094.28;6058851;29;20233;-76